createdAt,value
2019-05-21T00:00:44.450Z,17.05
2019-05-21T00:03:19.898Z,17.03
2019-05-21T00:05:53.793Z,17.02
2019-05-21T00:08:27.530Z,17.07
2019-05-21T00:11:03.154Z,17.05
2019-05-21T00:13:37.827Z,17.09
2019-05-21T00:16:11.495Z,17.03
2019-05-21T00:18:45.801Z,17.05
2019-05-21T00:21:20.168Z,17.04
2019-05-21T00:23:53.887Z,17.04
2019-05-21T00:26:27.967Z,16.99
2019-05-21T00:29:55.541Z,17.08
2019-05-21T00:33:23.550Z,17.08
2019-05-21T00:36:53.073Z,17.09
2019-05-21T00:40:23.087Z,17.04
2019-05-21T00:42:59.829Z,17.03
2019-05-21T00:45:36.745Z,17.03
2019-05-21T00:48:10.495Z,16.97
2019-05-21T00:50:44.249Z,16.96
2019-05-21T00:53:18.278Z,16.95
2019-05-21T00:55:54.189Z,16.99
2019-05-21T00:58:28.175Z,17.04
2019-05-21T01:01:01.929Z,16.99
2019-05-21T01:03:35.657Z,16.94
2019-05-21T01:06:10.892Z,16.94
2019-05-21T01:08:46.106Z,16.96
2019-05-21T01:11:21.925Z,16.93
2019-05-21T01:13:56.146Z,16.91
2019-05-21T01:16:30.305Z,16.97
2019-05-21T01:19:04.151Z,16.93
2019-05-21T01:21:37.879Z,17.09
2019-05-21T01:24:11.940Z,16.98
2019-05-21T01:26:47.686Z,17.04
2019-05-21T01:29:21.450Z,17.09
2019-05-21T01:31:55.523Z,16.97
2019-05-21T01:34:30.224Z,16.98
2019-05-21T01:37:04.410Z,16.93
2019-05-21T01:39:38.460Z,16.94
2019-05-21T01:42:14.440Z,17.02
2019-05-21T01:44:49.414Z,16.98
2019-05-21T01:47:24.473Z,16.99
2019-05-21T01:49:58.344Z,16.98
2019-05-21T01:52:33.896Z,16.96
2019-05-21T01:55:07.815Z,16.94
2019-05-21T01:57:41.659Z,16.92
2019-05-21T02:00:16.285Z,16.91
2019-05-21T02:02:51.869Z,16.96
2019-05-21T02:05:33.163Z,17.00
2019-05-21T02:08:12.349Z,17.06
2019-05-21T02:10:48.244Z,16.98
2019-05-21T02:13:25.117Z,16.97
2019-05-21T02:16:00.271Z,16.93
2019-05-21T02:18:34.507Z,16.94
2019-05-21T02:21:09.515Z,16.93
2019-05-21T02:23:43.308Z,16.92
2019-05-21T02:26:18.692Z,16.94
2019-05-21T02:28:53.430Z,16.85
2019-05-21T02:31:28.564Z,16.88
2019-05-21T02:34:02.392Z,16.80
2019-05-21T02:36:39.314Z,16.89
2019-05-21T02:39:15.985Z,16.91
2019-05-21T02:41:52.789Z,16.94
2019-05-21T02:44:27.948Z,16.91
2019-05-21T02:47:03.908Z,16.89
2019-05-21T02:49:37.869Z,16.89
2019-05-21T02:52:16.282Z,16.81
2019-05-21T02:54:50.099Z,16.84
2019-05-21T02:57:28.100Z,16.88
2019-05-21T03:00:05.792Z,16.87
2019-05-21T03:02:41.619Z,16.85
2019-05-21T03:05:20.026Z,16.83
2019-05-21T03:07:53.884Z,16.78
2019-05-21T03:10:27.933Z,16.88
2019-05-21T03:13:01.789Z,16.86
2019-05-21T03:15:36.668Z,16.84
2019-05-21T03:18:10.837Z,16.88
2019-05-21T03:20:45.712Z,16.87
2019-05-21T03:23:19.546Z,16.77
2019-05-21T03:25:53.155Z,16.71
2019-05-21T03:28:27.411Z,16.77
2019-05-21T03:31:01.168Z,16.80
2019-05-21T03:33:36.860Z,16.78
2019-05-21T03:36:10.489Z,16.79
2019-05-21T03:38:44.269Z,16.83
2019-05-21T03:41:18.008Z,16.87
2019-05-21T03:43:51.596Z,16.82
2019-05-21T03:46:25.412Z,16.82
2019-05-21T03:48:59.700Z,16.79
2019-05-21T03:51:35.133Z,16.76
2019-05-21T03:54:09.881Z,16.74
2019-05-21T03:56:45.122Z,16.74
2019-05-21T03:59:18.735Z,16.80
2019-05-21T04:01:52.610Z,16.80
2019-05-21T04:04:27.778Z,16.79
2019-05-21T04:07:03.527Z,16.80
2019-05-21T04:09:37.235Z,16.82
2019-05-21T04:12:11.051Z,16.84
2019-05-21T04:14:48.891Z,16.73
2019-05-21T04:17:37.393Z,16.79
2019-05-21T04:20:12.071Z,16.74
2019-05-21T04:22:56.255Z,16.73
2019-05-21T04:25:29.962Z,16.73
2019-05-21T04:28:03.883Z,16.74
2019-05-21T04:30:39.215Z,16.71
2019-05-21T04:33:14.407Z,16.71
2019-05-21T04:35:50.461Z,16.67
2019-05-21T04:38:24.211Z,16.71
2019-05-21T04:40:58.057Z,16.72
2019-05-21T04:43:33.666Z,16.69
2019-05-21T04:46:23.861Z,16.60
2019-05-21T04:48:57.684Z,16.67
2019-05-21T04:51:31.383Z,16.71
2019-05-21T04:54:06.991Z,16.69
2019-05-21T04:56:42.063Z,16.76
2019-05-21T04:59:16.731Z,16.66
2019-05-21T05:01:51.953Z,16.75
2019-05-21T05:04:26.151Z,16.74
2019-05-21T05:07:01.527Z,16.69
2019-05-21T05:09:36.543Z,16.74
2019-05-21T05:12:11.567Z,16.63
2019-05-21T05:14:47.911Z,16.58
2019-05-21T05:17:21.527Z,16.56
2019-05-21T05:19:57.179Z,16.67
2019-05-21T05:22:30.871Z,16.66
2019-05-21T05:25:06.579Z,16.59
2019-05-21T05:27:40.693Z,16.56
2019-05-21T05:30:16.607Z,16.62
2019-05-21T05:32:50.425Z,16.52
2019-05-21T05:35:26.789Z,16.57
2019-05-21T05:38:00.414Z,16.56
2019-05-21T05:40:34.125Z,16.67
2019-05-21T05:43:14.960Z,16.62
2019-05-21T05:45:48.968Z,16.63
2019-05-21T05:48:23.248Z,16.70
2019-05-21T05:51:01.720Z,16.74
2019-05-21T05:53:55.702Z,16.84
2019-05-21T05:56:32.311Z,16.78
2019-05-21T05:59:07.893Z,16.88
2019-05-21T06:01:41.623Z,16.94
2019-05-21T06:04:17.255Z,17.06
2019-05-21T06:06:51.008Z,17.06
2019-05-21T06:09:25.856Z,17.05
2019-05-21T06:12:00.004Z,17.12
2019-05-21T06:14:35.258Z,17.24
2019-05-21T06:17:08.910Z,17.16
2019-05-21T06:19:43.762Z,17.12
2019-05-21T06:22:19.164Z,17.14
2019-05-21T06:24:52.824Z,17.11
2019-05-21T06:27:26.537Z,17.23
2019-05-21T06:30:01.375Z,17.19
2019-05-21T06:32:36.511Z,17.26
2019-05-21T06:35:11.956Z,17.08
2019-05-21T06:37:48.848Z,17.09
2019-05-21T06:40:23.213Z,17.12
2019-05-21T06:42:57.497Z,16.96
2019-05-21T06:45:31.153Z,17.00
2019-05-21T06:48:07.862Z,17.00
2019-05-21T06:50:41.754Z,17.12
2019-05-21T06:53:17.314Z,17.08
2019-05-21T06:55:50.974Z,17.18
2019-05-21T06:58:24.791Z,17.30
2019-05-21T07:01:02.010Z,17.38
2019-05-21T07:03:35.823Z,17.47
2019-05-21T07:06:10.385Z,17.51
2019-05-21T07:08:44.563Z,17.51
2019-05-21T07:11:18.272Z,17.49
2019-05-21T07:13:53.170Z,17.53
2019-05-21T07:16:26.804Z,17.44
2019-05-21T07:19:01.918Z,17.54
2019-05-21T07:21:36.613Z,17.70
2019-05-21T07:24:10.337Z,17.72
2019-05-21T07:26:44.174Z,17.84
2019-05-21T07:29:19.833Z,17.93
2019-05-21T07:31:54.024Z,18.26
2019-05-21T07:34:28.038Z,18.44
2019-05-21T07:37:01.883Z,18.45
2019-05-21T07:39:36.000Z,18.46
2019-05-21T07:42:09.621Z,18.22
2019-05-21T07:44:43.502Z,17.83
2019-05-21T07:47:18.894Z,17.88
2019-05-21T07:49:52.654Z,17.76
2019-05-21T07:52:26.470Z,17.57
2019-05-21T07:55:01.740Z,17.47
2019-05-21T07:57:35.841Z,17.53
2019-05-21T08:00:11.436Z,17.37
2019-05-21T08:02:45.376Z,17.42
2019-05-21T08:05:21.295Z,17.30
2019-05-21T08:07:56.071Z,17.21
2019-05-21T08:10:30.056Z,17.05
2019-05-21T08:13:05.301Z,17.14
2019-05-21T08:15:39.203Z,17.23
2019-05-21T08:18:13.853Z,17.21
2019-05-21T08:20:47.882Z,17.28
2019-05-21T08:23:21.579Z,17.28
2019-05-21T08:25:57.101Z,17.47
2019-05-21T08:28:31.068Z,17.63
2019-05-21T08:31:04.948Z,17.68
2019-05-21T08:33:38.741Z,17.65
2019-05-21T08:36:13.925Z,17.62
2019-05-21T08:38:48.529Z,17.72
2019-05-21T08:41:22.399Z,17.88
2019-05-21T08:43:58.422Z,17.87
2019-05-21T08:46:32.562Z,18.14
2019-05-21T08:49:07.984Z,18.23
2019-05-21T08:51:42.401Z,18.32
2019-05-21T08:54:17.810Z,18.21
2019-05-21T08:56:51.447Z,18.07
2019-05-21T08:59:25.228Z,18.48
2019-05-21T09:01:59.251Z,18.71
2019-05-21T09:04:45.916Z,18.73
2019-05-21T09:07:11.970Z,18.76
2019-05-21T09:09:50.611Z,18.86
2019-05-21T09:12:21.528Z,18.83
2019-05-21T09:14:56.566Z,18.93
2019-05-21T09:17:31.429Z,19.00
2019-05-21T09:20:06.087Z,19.04
2019-05-21T09:22:39.828Z,19.40
2019-05-21T09:25:13.725Z,19.24
2019-05-21T09:27:47.726Z,19.04
2019-05-21T09:30:22.689Z,18.94
2019-05-21T09:32:56.753Z,19.21
2019-05-21T09:35:30.473Z,19.53
2019-05-21T09:38:04.115Z,19.56
2019-05-21T09:40:38.052Z,19.61
2019-05-21T09:43:12.763Z,19.45
2019-05-21T09:45:46.733Z,19.21
2019-05-21T09:48:21.508Z,19.44
2019-05-21T09:50:55.191Z,19.63
2019-05-21T09:53:28.951Z,19.60
2019-05-21T09:56:21.535Z,19.47
2019-05-21T09:58:57.325Z,19.48
2019-05-21T10:01:40.555Z,19.15
2019-05-21T10:04:14.714Z,18.76
2019-05-21T10:06:48.556Z,18.78
2019-05-21T10:09:22.965Z,18.70
2019-05-21T10:11:57.403Z,18.76
2019-05-21T10:14:34.122Z,18.39
2019-05-21T10:17:07.867Z,18.59
2019-05-21T10:19:42.092Z,18.82
2019-05-21T10:22:18.015Z,18.72
2019-05-21T10:24:52.130Z,18.68
2019-05-21T10:27:25.833Z,18.94
2019-05-21T10:30:01.709Z,18.91
2019-05-21T10:32:35.526Z,18.95
2019-05-21T10:35:11.830Z,19.13
2019-05-21T10:37:54.623Z,19.43
2019-05-21T10:40:21.505Z,19.33
2019-05-21T10:42:56.618Z,19.24
2019-05-21T10:45:33.100Z,19.37
2019-05-21T10:48:09.574Z,19.29
2019-05-21T10:50:43.346Z,19.32
2019-05-21T10:53:18.573Z,19.53
2019-05-21T10:55:56.481Z,19.46
2019-05-21T10:58:30.311Z,19.42
2019-05-21T11:01:23.267Z,19.27
2019-05-21T11:04:16.384Z,19.26
2019-05-21T11:06:50.877Z,19.48
2019-05-21T11:09:26.326Z,19.21
2019-05-21T11:12:01.374Z,19.21
2019-05-21T11:14:35.395Z,19.14
2019-05-21T11:17:12.600Z,19.09
2019-05-21T11:19:47.637Z,18.78
2019-05-21T11:22:21.887Z,18.65
2019-05-21T11:24:55.612Z,18.46
2019-05-21T11:27:30.532Z,18.39
2019-05-21T11:30:05.038Z,18.24
2019-05-21T11:32:41.591Z,17.98
2019-05-21T11:35:16.232Z,17.93
2019-05-21T11:37:51.620Z,17.87
2019-05-21T11:40:27.296Z,17.92
2019-05-21T11:43:02.076Z,18.10
2019-05-21T11:45:36.047Z,17.89
2019-05-21T11:48:09.748Z,17.72
2019-05-21T11:50:45.918Z,17.63
2019-05-21T11:53:20.022Z,17.61
2019-05-21T11:55:55.596Z,17.48
2019-05-21T11:58:31.305Z,17.24
2019-05-21T12:01:05.211Z,17.24
2019-05-21T12:03:39.038Z,17.32
2019-05-21T12:06:13.092Z,17.58
2019-05-21T12:08:56.925Z,17.60
2019-05-21T12:11:24.465Z,17.69
2019-05-21T12:14:00.123Z,17.75
2019-05-21T12:16:35.961Z,17.71
2019-05-21T12:19:11.517Z,17.69
2019-05-21T12:21:47.471Z,17.76
2019-05-21T12:24:27.419Z,17.56
2019-05-21T12:27:01.741Z,17.57
2019-05-21T12:29:36.891Z,17.64
2019-05-21T12:32:11.718Z,17.46
2019-05-21T12:34:45.837Z,17.40
2019-05-21T12:37:20.991Z,17.33
2019-05-21T12:39:55.005Z,17.48
2019-05-21T12:42:28.891Z,17.48
2019-05-21T12:45:03.877Z,17.79
2019-05-21T12:47:37.609Z,18.04
2019-05-21T12:50:13.282Z,18.22
2019-05-21T12:52:47.489Z,18.13
2019-05-21T12:55:21.359Z,17.76
2019-05-21T12:57:56.343Z,17.52
2019-05-21T13:00:34.596Z,17.22
2019-05-21T13:03:08.655Z,17.26
2019-05-21T13:05:42.865Z,17.43
2019-05-21T13:08:18.571Z,17.72
2019-05-21T13:10:52.336Z,18.02
2019-05-21T13:13:27.101Z,18.33
2019-05-21T13:16:00.886Z,18.38
2019-05-21T13:18:34.760Z,18.35
2019-05-21T13:21:08.683Z,18.33
2019-05-21T13:23:42.907Z,18.07
2019-05-21T13:26:18.922Z,18.06
2019-05-21T13:28:52.784Z,17.81
2019-05-21T13:31:27.816Z,17.70
2019-05-21T13:34:01.993Z,17.32
2019-05-21T13:36:35.808Z,17.56
2019-05-21T13:39:10.679Z,17.54
2019-05-21T13:41:46.152Z,17.41
2019-05-21T13:44:20.494Z,17.51
2019-05-21T13:46:55.205Z,17.50
2019-05-21T13:49:29.030Z,17.44
2019-05-21T13:52:02.752Z,17.12
2019-05-21T13:54:36.428Z,17.24
2019-05-21T13:57:10.472Z,17.25
2019-05-21T13:59:44.294Z,17.40
2019-05-21T14:02:19.213Z,17.49
2019-05-21T14:04:53.393Z,17.55
2019-05-21T14:07:28.196Z,17.64
2019-05-21T14:10:14.035Z,17.69
2019-05-21T14:12:37.761Z,17.70
2019-05-21T14:15:12.058Z,17.85
2019-05-21T14:17:46.771Z,17.78
2019-05-21T14:20:22.946Z,17.79
2019-05-21T14:22:58.219Z,17.78
2019-05-21T14:25:32.472Z,17.66
2019-05-21T14:28:07.324Z,17.52
2019-05-21T14:30:41.553Z,17.37
2019-05-21T14:33:15.923Z,17.20
2019-05-21T14:35:49.809Z,17.10
2019-05-21T14:38:25.248Z,17.08
2019-05-21T14:40:59.246Z,16.88
2019-05-21T14:43:32.963Z,16.92
2019-05-21T14:46:09.383Z,16.80
2019-05-21T14:48:43.131Z,16.84
2019-05-21T14:51:16.842Z,16.58
2019-05-21T14:53:50.704Z,16.77
2019-05-21T14:56:24.504Z,16.54
2019-05-21T14:59:00.050Z,16.47
2019-05-21T15:01:33.966Z,16.49
2019-05-21T15:04:07.951Z,16.41
2019-05-21T15:06:42.091Z,16.47
2019-05-21T15:09:16.681Z,16.46
2019-05-21T15:11:50.559Z,16.09
2019-05-21T15:14:53.219Z,15.93
2019-05-21T15:17:28.470Z,15.82
2019-05-21T15:20:05.884Z,15.72
2019-05-21T15:22:41.887Z,15.63
2019-05-21T15:25:15.578Z,15.57
2019-05-21T15:27:49.303Z,15.55
2019-05-21T15:30:23.420Z,15.82
2019-05-21T15:32:58.335Z,15.59
2019-05-21T15:35:32.191Z,15.63
2019-05-21T15:38:06.463Z,15.58
2019-05-21T15:40:41.912Z,15.64
2019-05-21T15:43:30.214Z,15.62
2019-05-21T15:46:05.157Z,15.63
2019-05-21T15:48:39.433Z,15.62
2019-05-21T15:51:15.765Z,15.42
2019-05-21T15:53:51.487Z,15.50
2019-05-21T15:56:25.577Z,15.59
2019-05-21T15:58:59.928Z,15.51
2019-05-21T16:01:33.769Z,15.53
2019-05-21T16:04:09.161Z,15.58
2019-05-21T16:06:43.190Z,15.50
2019-05-21T16:09:19.943Z,15.67
2019-05-21T16:11:57.356Z,15.50
2019-05-21T16:14:31.274Z,15.45
2019-05-21T16:17:05.180Z,15.44
2019-05-21T16:19:38.817Z,15.37
2019-05-21T16:22:16.161Z,15.38
2019-05-21T16:24:50.694Z,15.47
2019-05-21T16:27:24.438Z,15.53
2019-05-21T16:29:58.436Z,15.41
2019-05-21T16:32:32.479Z,15.42
2019-05-21T16:35:06.789Z,15.39
2019-05-21T16:37:41.043Z,15.40
2019-05-21T16:40:17.256Z,15.36
2019-05-21T16:42:50.934Z,15.32
2019-05-21T16:45:26.558Z,15.33
2019-05-21T16:48:00.768Z,15.36
2019-05-21T16:50:34.789Z,15.33
2019-05-21T16:53:10.382Z,15.29
2019-05-21T16:55:44.260Z,15.35
2019-05-21T16:58:18.017Z,15.30
2019-05-21T17:00:58.801Z,15.40
2019-05-21T17:03:32.757Z,15.55
2019-05-21T17:06:08.626Z,15.45
2019-05-21T17:08:44.203Z,15.37
2019-05-21T17:11:22.508Z,15.42
2019-05-21T17:13:56.532Z,15.41
2019-05-21T17:16:30.581Z,15.38
2019-05-21T17:19:05.628Z,15.53
2019-05-21T17:21:39.736Z,15.44
2019-05-21T17:24:14.000Z,15.63
2019-05-21T17:26:47.956Z,15.51
2019-05-21T17:29:22.905Z,15.53
2019-05-21T17:32:06.833Z,15.48
2019-05-21T17:34:43.624Z,15.48
2019-05-21T17:37:19.246Z,15.54
2019-05-21T17:39:56.649Z,15.51
2019-05-21T17:42:30.486Z,15.49
2019-05-21T17:45:17.010Z,15.42
2019-05-21T17:47:53.859Z,15.44
2019-05-21T17:50:27.897Z,15.32
2019-05-21T17:53:04.137Z,15.24
2019-05-21T17:55:49.681Z,15.20
2019-05-21T17:58:24.564Z,15.14
2019-05-21T18:01:01.760Z,15.11
2019-05-21T18:03:36.385Z,15.13
2019-05-21T18:06:14.207Z,15.23
2019-05-21T18:08:52.558Z,15.15
2019-05-21T18:11:28.129Z,15.05
2019-05-21T18:14:05.237Z,15.06
2019-05-21T18:16:46.017Z,15.05
2019-05-21T18:19:23.173Z,14.89
2019-05-21T18:21:58.146Z,14.93
2019-05-21T18:24:32.334Z,15.00
2019-05-21T18:27:09.072Z,14.85
2019-05-21T18:29:45.306Z,14.82
2019-05-21T18:32:19.395Z,14.90
2019-05-21T18:34:56.560Z,14.72
2019-05-21T18:37:35.530Z,14.71
2019-05-21T18:40:30.244Z,14.85
2019-05-21T18:43:04.783Z,14.82
2019-05-21T18:45:42.781Z,14.76
2019-05-21T18:48:17.063Z,14.66
2019-05-21T18:50:52.493Z,14.71
2019-05-21T18:53:27.603Z,14.80
2019-05-21T18:56:02.169Z,14.65
2019-05-21T18:58:37.354Z,14.60
2019-05-21T19:01:14.132Z,14.68
2019-05-21T19:03:51.879Z,14.56
2019-05-21T19:06:26.020Z,14.56
2019-05-21T19:09:02.082Z,14.55
2019-05-21T19:11:36.255Z,14.46
2019-05-21T19:14:13.639Z,14.65
2019-05-21T19:16:55.217Z,14.64
2019-05-21T19:19:31.241Z,14.76
2019-05-21T19:22:08.064Z,14.72
2019-05-21T19:24:42.893Z,14.68
2019-05-21T19:27:17.183Z,14.71
2019-05-21T19:29:53.546Z,14.76
2019-05-21T19:32:28.252Z,14.70
2019-05-21T19:35:03.795Z,14.60
2019-05-21T19:37:44.052Z,14.61
2019-05-21T19:40:20.506Z,14.59
2019-05-21T19:43:01.288Z,14.56
2019-05-21T19:45:36.709Z,14.50
2019-05-21T19:48:11.732Z,14.39
2019-05-21T19:50:46.497Z,14.52
2019-05-21T19:53:29.752Z,14.55
2019-05-21T19:56:05.434Z,14.65
2019-05-21T19:58:39.228Z,14.54
2019-05-21T20:01:13.328Z,14.44
2019-05-21T20:03:48.457Z,14.38
2019-05-21T20:06:28.088Z,14.47
2019-05-21T20:09:05.003Z,14.48
2019-05-21T20:11:39.455Z,14.48
2019-05-21T20:14:15.540Z,14.52
2019-05-21T20:16:50.164Z,14.45
2019-05-21T20:19:28.684Z,14.41
2019-05-21T20:22:05.560Z,14.47
2019-05-21T20:24:40.782Z,14.43
2019-05-21T20:27:16.139Z,14.41
2019-05-21T20:29:51.079Z,14.34
2019-05-21T20:32:25.890Z,14.35
2019-05-21T20:35:00.436Z,14.42
2019-05-21T20:37:35.757Z,14.32
2019-05-21T20:40:13.018Z,14.43
2019-05-21T20:42:47.619Z,14.31
2019-05-21T20:45:22.887Z,14.17
2019-05-21T20:47:58.942Z,14.24
2019-05-21T20:50:32.790Z,14.18
2019-05-21T20:53:07.742Z,14.21
2019-05-21T20:55:41.951Z,14.22
2019-05-21T20:58:16.086Z,14.35
2019-05-21T21:00:58.169Z,14.41
2019-05-21T21:03:35.007Z,14.30
2019-05-21T21:06:09.778Z,14.41
2019-05-21T21:08:44.411Z,14.32
2019-05-21T21:11:19.724Z,14.23
2019-05-21T21:13:55.088Z,14.14
2019-05-21T21:16:29.339Z,14.07
2019-05-21T21:19:03.207Z,14.08
2019-05-21T21:21:37.394Z,14.06
2019-05-21T21:24:13.502Z,14.06
2019-05-21T21:26:47.885Z,14.18
2019-05-21T21:29:22.137Z,14.00
2019-05-21T21:31:56.139Z,14.00
2019-05-21T21:34:29.867Z,14.00
2019-05-21T21:37:04.067Z,14.00
2019-05-21T21:39:40.639Z,14.02
2019-05-21T21:42:16.807Z,14.08
2019-05-21T21:44:51.302Z,13.85
2019-05-21T21:47:26.684Z,13.86
2019-05-21T21:50:02.848Z,13.86
2019-05-21T21:52:37.322Z,13.82
2019-05-21T21:55:12.464Z,13.79
2019-05-21T21:57:46.303Z,13.86
2019-05-21T22:01:31.746Z,13.87
2019-05-21T22:04:09.040Z,13.84
2019-05-21T22:06:46.788Z,13.75
2019-05-21T22:09:40.619Z,13.82
2019-05-21T22:12:18.160Z,13.64
2019-05-21T22:15:01.108Z,13.68
2019-05-21T22:17:34.925Z,13.78
2019-05-21T22:20:10.436Z,13.75
2019-05-21T22:22:46.421Z,13.76
2019-05-21T22:25:23.380Z,13.64
2019-05-21T22:27:57.404Z,13.57
2019-05-21T22:30:32.723Z,13.57
2019-05-21T22:33:07.379Z,13.56
2019-05-21T22:35:41.559Z,13.56
2019-05-21T22:38:16.019Z,13.43
2019-05-21T22:40:50.061Z,13.51
2019-05-21T22:43:24.269Z,13.52
2019-05-21T22:46:01.851Z,13.38
2019-05-21T22:48:35.857Z,13.39
2019-05-21T22:51:11.313Z,13.32
2019-05-21T22:53:45.347Z,13.28
2019-05-21T22:56:21.211Z,13.22
2019-05-21T22:58:56.977Z,13.42
2019-05-21T23:01:33.037Z,13.38
2019-05-21T23:04:07.502Z,13.30
2019-05-21T23:06:43.273Z,13.19
2019-05-21T23:09:18.538Z,13.14
2019-05-21T23:11:53.342Z,13.18
2019-05-21T23:14:27.480Z,13.13
2019-05-21T23:17:01.448Z,13.01
2019-05-21T23:19:36.697Z,13.13
2019-05-21T23:22:12.906Z,13.13
2019-05-21T23:24:48.399Z,13.10
2019-05-21T23:27:25.809Z,13.07
2019-05-21T23:29:59.715Z,13.18
2019-05-21T23:32:34.140Z,13.11
2019-05-21T23:35:10.662Z,13.20
2019-05-21T23:37:49.209Z,13.20
2019-05-21T23:40:24.687Z,13.02
2019-05-21T23:43:14.925Z,12.92
2019-05-21T23:45:48.989Z,13.03
2019-05-21T23:48:23.256Z,13.07
2019-05-21T23:50:59.140Z,12.99
2019-05-21T23:53:33.441Z,12.99
2019-05-21T23:56:07.273Z,12.90
2019-05-21T23:58:41.330Z,12.90
